AAL414 KPHX-KPGA
Flight info
| Callsign | AAL414 |
|---|---|
| Flight time | 0h 48m |
| Altitude | 25000 |
| Route | QUAKY1 CARTL FLG PGA |
| Aircraft | A20N/M-SDE2E3FGHIRWXY/LB1 |
Departure
| Time | 2026-04-20 23:42 |
|---|---|
| Airport | Phoenix Sky Harbor International Airport (KPHX) |
Arrival
| Time | 2026-04-21 00:30 |
|---|---|
| Airport | Page Municipal Airport (KPGA) |
| Time | Latitude | Longitude | Altitude | Speed | Heading |
|---|---|---|---|---|---|
| 2026-04-20 23:17 | 33.43796 | -111.99989 | 1136 ft | 0 kts | 128° |
| 2026-04-20 23:29 | 33.43808 | -112.00006 | 1133 ft | 3 kts | 128° |
| 2026-04-20 23:29 | 33.43824 | -112.00030 | 1133 ft | 3 kts | 128° |
| 2026-04-20 23:29 | 33.43840 | -112.00056 | 1134 ft | 2 kts | 128° |
| 2026-04-20 23:30 | 33.43841 | -112.00057 | 1134 ft | 0 kts | 127° |
| 2026-04-20 23:30 | 33.43840 | -112.00057 | 1134 ft | 0 kts | 127° |
| 2026-04-20 23:31 | 33.43840 | -112.00058 | 1134 ft | 0 kts | 122° |
| 2026-04-20 23:32 | 33.43839 | -112.00058 | 1134 ft | 0 kts | 118° |
| 2026-04-20 23:34 | 33.43839 | -112.00057 | 1133 ft | 0 kts | 118° |
| 2026-04-20 23:35 | 33.43841 | -112.00044 | 1133 ft | 2 kts | 57° |
| 2026-04-20 23:35 | 33.43877 | -111.99991 | 1134 ft | 4 kts | 59° |
| 2026-04-20 23:35 | 33.43888 | -111.99963 | 1135 ft | 3 kts | 69° |
| 2026-04-20 23:36 | 33.43894 | -111.99940 | 1136 ft | 2 kts | 75° |
| 2026-04-20 23:36 | 33.43898 | -111.99921 | 1136 ft | 2 kts | 78° |
| 2026-04-20 23:36 | 33.43901 | -111.99892 | 1137 ft | 4 kts | 86° |
| 2026-04-20 23:36 | 33.43901 | -111.99854 | 1137 ft | 5 kts | 90° |
| 2026-04-20 23:37 | 33.43901 | -111.99801 | 1138 ft | 7 kts | 89° |
| 2026-04-20 23:37 | 33.43903 | -111.99725 | 1138 ft | 10 kts | 88° |
| 2026-04-20 23:37 | 33.43905 | -111.99626 | 1138 ft | 13 kts | 88° |
| 2026-04-20 23:37 | 33.43907 | -111.99509 | 1138 ft | 14 kts | 89° |
| 2026-04-20 23:38 | 33.43906 | -111.99386 | 1138 ft | 15 kts | 91° |
| 2026-04-20 23:38 | 33.43870 | -111.99268 | 1137 ft | 15 kts | 135° |
| 2026-04-20 23:38 | 33.43765 | -111.99227 | 1135 ft | 17 kts | 177° |
| 2026-04-20 23:38 | 33.43636 | -111.99223 | 1133 ft | 19 kts | 180° |
| 2026-04-20 23:39 | 33.43497 | -111.99226 | 1130 ft | 20 kts | 181° |
| 2026-04-20 23:39 | 33.43353 | -111.99229 | 1129 ft | 21 kts | 181° |
| 2026-04-20 23:39 | 33.43217 | -111.99284 | 1129 ft | 17 kts | 214° |
| 2026-04-20 23:39 | 33.43208 | -111.99291 | 1129 ft | 0 kts | 214° |
| 2026-04-20 23:40 | 33.43195 | -111.99300 | 1130 ft | 4 kts | 213° |
| 2026-04-20 23:40 | 33.43158 | -111.99330 | 1130 ft | 7 kts | 214° |
| 2026-04-20 23:40 | 33.43116 | -111.99379 | 1129 ft | 10 kts | 240° |
| 2026-04-20 23:41 | 33.43104 | -111.99472 | 1128 ft | 12 kts | 268° |
| 2026-04-20 23:41 | 33.43104 | -111.99764 | 1127 ft | 73 kts | 271° |
| 2026-04-20 23:41 | 33.43105 | -112.00668 | 1130 ft | 142 kts | 268° |
| 2026-04-20 23:41 | 33.43107 | -112.02045 | 1236 ft | 185 kts | 270° |
| 2026-04-20 23:42 | 33.43063 | -112.03584 | 1940 ft | 184 kts | 271° |
| 2026-04-20 23:42 | 33.43089 | -112.05059 | 2755 ft | 177 kts | 274° |
| 2026-04-20 23:42 | 33.43135 | -112.06535 | 3297 ft | 187 kts | 274° |
| 2026-04-20 23:42 | 33.43191 | -112.08157 | 3771 ft | 204 kts | 274° |
| 2026-04-20 23:43 | 33.43247 | -112.09910 | 4262 ft | 221 kts | 273° |
| 2026-04-20 23:43 | 33.43303 | -112.11835 | 4700 ft | 244 kts | 272° |
| 2026-04-20 23:43 | 33.43363 | -112.13937 | 5381 ft | 258 kts | 272° |
| 2026-04-20 23:43 | 33.43447 | -112.16049 | 6277 ft | 259 kts | 278° |
| 2026-04-20 23:44 | 33.44104 | -112.18036 | 7097 ft | 261 kts | 309° |
| 2026-04-20 23:44 | 33.45491 | -112.19375 | 7903 ft | 262 kts | 336° |
| 2026-04-20 23:44 | 33.47251 | -112.19803 | 8663 ft | 264 kts | 360° |
| 2026-04-20 23:44 | 33.49085 | -112.19750 | 9431 ft | 267 kts | 1° |
| 2026-04-20 23:45 | 33.50946 | -112.19684 | 10157 ft | 271 kts | 2° |
| 2026-04-20 23:45 | 33.52840 | -112.19518 | 10881 ft | 275 kts | 7° |
| 2026-04-20 23:45 | 33.54739 | -112.19122 | 11464 ft | 284 kts | 12° |
| 2026-04-20 23:45 | 33.56725 | -112.18553 | 11883 ft | 302 kts | 13° |
| 2026-04-20 23:46 | 33.58806 | -112.17918 | 12263 ft | 320 kts | 15° |
| 2026-04-20 23:46 | 33.60939 | -112.16920 | 12697 ft | 339 kts | 26° |
| 2026-04-20 23:46 | 33.62970 | -112.15293 | 13159 ft | 360 kts | 40° |
| 2026-04-20 23:46 | 33.64775 | -112.13165 | 13778 ft | 371 kts | 46° |
| 2026-04-20 23:47 | 33.66535 | -112.10876 | 14529 ft | 378 kts | 46° |
| 2026-04-20 23:47 | 33.68329 | -112.08533 | 15206 ft | 386 kts | 46° |
| 2026-04-20 23:47 | 33.70163 | -112.06179 | 15912 ft | 392 kts | 46° |
| 2026-04-20 23:47 | 33.72032 | -112.03787 | 16633 ft | 396 kts | 45° |
| 2026-04-20 23:48 | 33.74058 | -112.01513 | 17327 ft | 399 kts | 34° |
| 2026-04-20 23:48 | 33.76473 | -111.99936 | 18016 ft | 398 kts | 18° |
| 2026-04-20 23:48 | 33.79135 | -111.99131 | 18688 ft | 397 kts | 6° |
| 2026-04-20 23:48 | 33.81863 | -111.98636 | 19358 ft | 400 kts | 5° |
| 2026-04-20 23:49 | 33.84631 | -111.98167 | 20025 ft | 403 kts | 5° |
| 2026-04-20 23:49 | 33.87395 | -111.97684 | 20680 ft | 407 kts | 5° |
| 2026-04-20 23:49 | 33.90228 | -111.97170 | 21329 ft | 409 kts | 5° |
| 2026-04-20 23:49 | 33.93015 | -111.96652 | 21914 ft | 414 kts | 5° |
| 2026-04-20 23:50 | 33.95881 | -111.96113 | 22527 ft | 417 kts | 6° |
| 2026-04-20 23:50 | 33.98751 | -111.95567 | 23151 ft | 421 kts | 6° |
| 2026-04-20 23:50 | 34.01671 | -111.95011 | 23749 ft | 424 kts | 6° |
| 2026-04-20 23:50 | 34.04577 | -111.94460 | 24303 ft | 426 kts | 6° |
| 2026-04-20 23:51 | 34.07539 | -111.94054 | 24816 ft | 429 kts | 1° |
| 2026-04-20 23:51 | 34.10503 | -111.93919 | 25091 ft | 430 kts | 357° |
| 2026-04-20 23:51 | 34.13483 | -111.94061 | 25159 ft | 427 kts | 353° |
| 2026-04-20 23:51 | 34.16462 | -111.94367 | 25161 ft | 426 kts | 352° |
| 2026-04-20 23:52 | 34.19387 | -111.94700 | 25158 ft | 426 kts | 352° |
| 2026-04-20 23:52 | 34.22358 | -111.95040 | 25153 ft | 426 kts | 352° |
| 2026-04-20 23:52 | 34.25296 | -111.95373 | 25137 ft | 425 kts | 353° |
| 2026-04-20 23:52 | 34.28244 | -111.95702 | 25070 ft | 425 kts | 353° |
| 2026-04-20 23:53 | 34.31177 | -111.96025 | 25056 ft | 425 kts | 353° |
| 2026-04-20 23:53 | 34.34114 | -111.96349 | 25068 ft | 425 kts | 353° |
| 2026-04-20 23:53 | 34.37093 | -111.96676 | 25097 ft | 425 kts | 353° |
| 2026-04-20 23:53 | 34.40007 | -111.96999 | 25136 ft | 425 kts | 353° |
| 2026-04-20 23:54 | 34.42947 | -111.97324 | 25158 ft | 425 kts | 353° |
| 2026-04-20 23:54 | 34.45924 | -111.97656 | 25171 ft | 425 kts | 353° |
| 2026-04-20 23:54 | 34.48854 | -111.97981 | 25179 ft | 425 kts | 353° |
| 2026-04-20 23:54 | 34.51797 | -111.98308 | 25186 ft | 425 kts | 353° |
| 2026-04-20 23:55 | 34.54755 | -111.98632 | 25183 ft | 426 kts | 353° |
| 2026-04-20 23:55 | 34.57688 | -111.98953 | 25174 ft | 426 kts | 353° |
| 2026-04-20 23:55 | 34.60639 | -111.99277 | 25162 ft | 426 kts | 353° |
| 2026-04-20 23:55 | 34.63578 | -111.99602 | 25145 ft | 426 kts | 353° |
| 2026-04-20 23:56 | 34.66558 | -111.99932 | 25132 ft | 426 kts | 353° |
| 2026-04-20 23:56 | 34.69505 | -112.00259 | 25122 ft | 426 kts | 353° |
| 2026-04-20 23:56 | 34.72443 | -112.00561 | 25111 ft | 427 kts | 356° |
| 2026-04-20 23:56 | 34.75409 | -112.00294 | 25101 ft | 429 kts | 9° |
| 2026-04-20 23:57 | 34.78267 | -111.99197 | 25099 ft | 431 kts | 23° |
| 2026-04-20 23:57 | 34.80856 | -111.97359 | 25110 ft | 433 kts | 33° |
| 2026-04-20 23:57 | 34.83296 | -111.95237 | 25119 ft | 433 kts | 34° |
| 2026-04-20 23:57 | 34.85736 | -111.93057 | 25131 ft | 433 kts | 35° |
| 2026-04-20 23:58 | 34.88141 | -111.90908 | 25147 ft | 433 kts | 35° |
| 2026-04-20 23:58 | 34.90570 | -111.88753 | 25163 ft | 433 kts | 34° |
| 2026-04-20 23:58 | 34.93022 | -111.86588 | 25181 ft | 434 kts | 34° |
| 2026-04-20 23:58 | 34.95457 | -111.84443 | 25199 ft | 434 kts | 34° |
| 2026-04-20 23:59 | 34.97919 | -111.82277 | 25211 ft | 434 kts | 34° |
| 2026-04-20 23:59 | 35.00356 | -111.80132 | 25219 ft | 434 kts | 34° |
| 2026-04-20 23:59 | 35.02808 | -111.77970 | 25226 ft | 434 kts | 34° |
| 2026-04-20 23:59 | 35.05260 | -111.75808 | 25232 ft | 434 kts | 34° |
| 2026-04-21 00:00 | 35.07704 | -111.73651 | 25238 ft | 434 kts | 34° |
| 2026-04-21 00:00 | 35.10120 | -111.71518 | 25245 ft | 433 kts | 35° |
| 2026-04-21 00:00 | 35.12624 | -111.69480 | 25248 ft | 432 kts | 28° |
| 2026-04-21 00:00 | 35.15381 | -111.67948 | 25253 ft | 431 kts | 18° |
| 2026-04-21 00:01 | 35.18256 | -111.67012 | 25257 ft | 430 kts | 8° |
| 2026-04-21 00:01 | 35.21230 | -111.66542 | 25263 ft | 430 kts | 5° |
| 2026-04-21 00:01 | 35.24206 | -111.66183 | 25266 ft | 430 kts | 4° |
| 2026-04-21 00:01 | 35.27177 | -111.65842 | 25267 ft | 430 kts | 4° |
| 2026-04-21 00:02 | 35.30134 | -111.65497 | 25259 ft | 430 kts | 4° |
| 2026-04-21 00:02 | 35.33123 | -111.65139 | 25248 ft | 430 kts | 4° |
| 2026-04-21 00:02 | 35.36093 | -111.64778 | 25235 ft | 430 kts | 4° |
| 2026-04-21 00:02 | 35.39060 | -111.64413 | 25219 ft | 430 kts | 4° |
| 2026-04-21 00:03 | 35.42042 | -111.64043 | 25207 ft | 430 kts | 5° |
| 2026-04-21 00:03 | 35.45013 | -111.63673 | 25195 ft | 430 kts | 5° |
| 2026-04-21 00:03 | 35.48004 | -111.63299 | 25185 ft | 430 kts | 5° |
| 2026-04-21 00:03 | 35.50983 | -111.62927 | 25175 ft | 430 kts | 5° |
| 2026-04-21 00:04 | 35.53949 | -111.62555 | 25166 ft | 430 kts | 5° |
| 2026-04-21 00:04 | 35.56943 | -111.62180 | 25158 ft | 430 kts | 5° |
| 2026-04-21 00:04 | 35.59913 | -111.61807 | 25149 ft | 430 kts | 5° |
| 2026-04-21 00:04 | 35.62878 | -111.61434 | 25141 ft | 430 kts | 5° |
| 2026-04-21 00:05 | 35.65836 | -111.61062 | 25133 ft | 430 kts | 5° |
| 2026-04-21 00:05 | 35.68847 | -111.60683 | 25125 ft | 430 kts | 5° |
| 2026-04-21 00:05 | 35.71806 | -111.60310 | 25117 ft | 430 kts | 5° |
| 2026-04-21 00:05 | 35.74791 | -111.59933 | 25111 ft | 430 kts | 5° |
| 2026-04-21 00:06 | 35.77734 | -111.59563 | 25107 ft | 430 kts | 5° |
| 2026-04-21 00:06 | 35.80725 | -111.59185 | 25106 ft | 430 kts | 5° |
| 2026-04-21 00:06 | 35.83681 | -111.58811 | 25107 ft | 430 kts | 5° |
| 2026-04-21 00:06 | 35.86683 | -111.58431 | 25109 ft | 430 kts | 5° |
| 2026-04-21 00:07 | 35.89652 | -111.58055 | 25111 ft | 430 kts | 5° |
| 2026-04-21 00:07 | 35.92607 | -111.57680 | 25113 ft | 430 kts | 5° |
| 2026-04-21 00:07 | 35.95596 | -111.57301 | 25115 ft | 430 kts | 5° |
| 2026-04-21 00:07 | 35.98579 | -111.56923 | 25115 ft | 430 kts | 5° |
| 2026-04-21 00:08 | 36.01542 | -111.56547 | 25112 ft | 430 kts | 5° |
| 2026-04-21 00:08 | 36.04498 | -111.56171 | 25109 ft | 430 kts | 5° |
| 2026-04-21 00:08 | 36.07468 | -111.55794 | 25106 ft | 430 kts | 5° |
| 2026-04-21 00:08 | 36.10444 | -111.55415 | 25104 ft | 430 kts | 5° |
| 2026-04-21 00:09 | 36.13427 | -111.55033 | 25102 ft | 430 kts | 5° |
| 2026-04-21 00:09 | 36.16391 | -111.54653 | 25100 ft | 430 kts | 5° |
| 2026-04-21 00:09 | 36.19383 | -111.54269 | 25098 ft | 430 kts | 5° |
| 2026-04-21 00:09 | 36.22366 | -111.53887 | 25095 ft | 430 kts | 5° |
| 2026-04-21 00:10 | 36.25327 | -111.53508 | 25094 ft | 430 kts | 5° |
| 2026-04-21 00:10 | 36.28304 | -111.53127 | 24959 ft | 430 kts | 5° |
| 2026-04-21 00:10 | 36.31274 | -111.52747 | 24751 ft | 427 kts | 5° |
| 2026-04-21 00:10 | 36.34204 | -111.52372 | 24522 ft | 426 kts | 5° |
| 2026-04-21 00:11 | 36.37166 | -111.51992 | 24288 ft | 424 kts | 5° |
| 2026-04-21 00:11 | 36.40082 | -111.51619 | 24055 ft | 422 kts | 5° |
| 2026-04-21 00:11 | 36.42984 | -111.51247 | 23815 ft | 420 kts | 5° |
| 2026-04-21 00:11 | 36.45887 | -111.50874 | 23545 ft | 418 kts | 5° |
| 2026-04-21 00:12 | 36.48754 | -111.50505 | 23277 ft | 416 kts | 5° |
| 2026-04-21 00:12 | 36.51633 | -111.50134 | 23007 ft | 414 kts | 5° |
| 2026-04-21 00:12 | 36.54470 | -111.49770 | 22743 ft | 412 kts | 5° |
| 2026-04-21 00:12 | 36.57332 | -111.49400 | 22488 ft | 410 kts | 5° |
| 2026-04-21 00:13 | 36.60162 | -111.49035 | 22235 ft | 409 kts | 5° |
| 2026-04-21 00:13 | 36.62979 | -111.48670 | 21981 ft | 407 kts | 5° |
| 2026-04-21 00:13 | 36.65802 | -111.48305 | 21728 ft | 405 kts | 5° |
| 2026-04-21 00:13 | 36.68607 | -111.47942 | 21494 ft | 404 kts | 5° |
| 2026-04-21 00:14 | 36.71382 | -111.47581 | 21263 ft | 402 kts | 5° |
| 2026-04-21 00:14 | 36.74172 | -111.47219 | 21032 ft | 401 kts | 5° |
| 2026-04-21 00:14 | 36.76939 | -111.46859 | 20801 ft | 399 kts | 5° |
| 2026-04-21 00:14 | 36.79689 | -111.46501 | 20537 ft | 398 kts | 5° |
| 2026-04-21 00:15 | 36.82426 | -111.46144 | 20271 ft | 396 kts | 5° |
| 2026-04-21 00:15 | 36.85175 | -111.45785 | 20002 ft | 394 kts | 5° |
| 2026-04-21 00:15 | 36.87879 | -111.45431 | 19737 ft | 393 kts | 5° |
| 2026-04-21 00:15 | 36.90620 | -111.45111 | 19482 ft | 391 kts | 2° |
| 2026-04-21 00:16 | 36.93310 | -111.45083 | 19230 ft | 389 kts | 356° |
| 2026-04-21 00:16 | 36.95991 | -111.45392 | 18977 ft | 387 kts | 351° |
| 2026-04-21 00:16 | 36.98672 | -111.45950 | 18723 ft | 386 kts | 349° |
| 2026-04-21 00:16 | 37.01282 | -111.46547 | 18474 ft | 384 kts | 348° |
| 2026-04-21 00:17 | 37.03911 | -111.47156 | 18213 ft | 382 kts | 348° |
| 2026-04-21 00:17 | 37.06535 | -111.47762 | 17953 ft | 381 kts | 348° |
| 2026-04-21 00:17 | 37.09135 | -111.48357 | 17695 ft | 379 kts | 349° |
| 2026-04-21 00:17 | 37.11722 | -111.48944 | 17443 ft | 377 kts | 349° |
| 2026-04-21 00:18 | 37.14287 | -111.49526 | 17160 ft | 371 kts | 349° |
| 2026-04-21 00:18 | 37.16791 | -111.50094 | 16807 ft | 362 kts | 348° |
| 2026-04-21 00:18 | 37.19195 | -111.50892 | 16458 ft | 353 kts | 337° |
| 2026-04-21 00:18 | 37.21396 | -111.52138 | 16121 ft | 344 kts | 333° |
| 2026-04-21 00:19 | 37.23528 | -111.53420 | 15779 ft | 336 kts | 333° |
| 2026-04-21 00:19 | 37.25609 | -111.54639 | 15497 ft | 326 kts | 334° |
| 2026-04-21 00:19 | 37.27646 | -111.55840 | 15196 ft | 319 kts | 332° |
| 2026-04-21 00:19 | 37.29343 | -111.57529 | 14910 ft | 308 kts | 307° |
| 2026-04-21 00:20 | 37.30313 | -111.59868 | 14614 ft | 302 kts | 285° |
| 2026-04-21 00:20 | 37.30512 | -111.62418 | 14340 ft | 296 kts | 264° |
| 2026-04-21 00:20 | 37.29971 | -111.64882 | 14043 ft | 288 kts | 243° |
| 2026-04-21 00:20 | 37.28828 | -111.66851 | 13789 ft | 273 kts | 224° |
| 2026-04-21 00:21 | 37.27315 | -111.68156 | 13541 ft | 263 kts | 204° |
| 2026-04-21 00:21 | 37.25565 | -111.68770 | 13321 ft | 263 kts | 186° |
| 2026-04-21 00:21 | 37.23773 | -111.68652 | 13079 ft | 255 kts | 167° |
| 2026-04-21 00:21 | 37.22137 | -111.67844 | 12830 ft | 250 kts | 148° |
| 2026-04-21 00:22 | 37.20805 | -111.66464 | 12576 ft | 250 kts | 130° |
| 2026-04-21 00:22 | 37.19876 | -111.64620 | 12338 ft | 250 kts | 112° |
| 2026-04-21 00:22 | 37.19451 | -111.62537 | 12093 ft | 249 kts | 94° |
| 2026-04-21 00:22 | 37.19555 | -111.60389 | 11843 ft | 247 kts | 76° |
| 2026-04-21 00:23 | 37.20012 | -111.58305 | 11597 ft | 247 kts | 75° |
| 2026-04-21 00:23 | 37.20255 | -111.56186 | 11336 ft | 246 kts | 90° |
| 2026-04-21 00:23 | 37.20003 | -111.54108 | 11019 ft | 239 kts | 109° |
| 2026-04-21 00:23 | 37.19278 | -111.52318 | 10739 ft | 226 kts | 126° |
| 2026-04-21 00:24 | 37.18247 | -111.50973 | 10534 ft | 207 kts | 142° |
| 2026-04-21 00:24 | 37.17040 | -111.50070 | 10277 ft | 199 kts | 157° |
| 2026-04-21 00:24 | 37.15712 | -111.49585 | 9839 ft | 200 kts | 172° |
| 2026-04-21 00:24 | 37.14330 | -111.49541 | 9354 ft | 199 kts | 186° |
| 2026-04-21 00:25 | 37.12994 | -111.49925 | 8875 ft | 199 kts | 200° |
| 2026-04-21 00:25 | 37.11678 | -111.50452 | 8389 ft | 200 kts | 186° |
| 2026-04-21 00:25 | 37.10354 | -111.50052 | 7891 ft | 200 kts | 148° |
| 2026-04-21 00:25 | 37.09281 | -111.48944 | 7426 ft | 199 kts | 146° |
| 2026-04-21 00:26 | 37.08067 | -111.48247 | 7084 ft | 190 kts | 163° |
| 2026-04-21 00:26 | 37.06782 | -111.47864 | 6806 ft | 188 kts | 170° |
| 2026-04-21 00:26 | 37.05496 | -111.47583 | 6566 ft | 182 kts | 172° |
| 2026-04-21 00:26 | 37.04306 | -111.47339 | 6334 ft | 165 kts | 172° |
| 2026-04-21 00:27 | 37.03224 | -111.47111 | 6121 ft | 150 kts | 171° |
| 2026-04-21 00:27 | 37.02234 | -111.46899 | 5937 ft | 142 kts | 171° |
| 2026-04-21 00:27 | 37.01263 | -111.46690 | 5774 ft | 141 kts | 170° |
| 2026-04-21 00:27 | 37.00308 | -111.46483 | 5602 ft | 140 kts | 170° |
| 2026-04-21 00:28 | 36.99345 | -111.46272 | 5427 ft | 140 kts | 170° |
| 2026-04-21 00:28 | 36.98383 | -111.46062 | 5246 ft | 139 kts | 170° |
| 2026-04-21 00:28 | 36.97425 | -111.45854 | 5061 ft | 139 kts | 170° |
| 2026-04-21 00:28 | 36.96469 | -111.45647 | 4878 ft | 139 kts | 171° |
| 2026-04-21 00:29 | 36.95521 | -111.45441 | 4696 ft | 138 kts | 171° |
| 2026-04-21 00:29 | 36.94572 | -111.45234 | 4518 ft | 138 kts | 172° |
| 2026-04-21 00:29 | 36.93627 | -111.45026 | 4341 ft | 137 kts | 172° |
| 2026-04-21 00:29 | 36.92728 | -111.44843 | 4259 ft | 120 kts | 175° |
| 2026-04-21 00:30 | 36.92095 | -111.44699 | 4287 ft | 59 kts | 167° |
| 2026-04-21 00:30 | 36.91805 | -111.44639 | 4297 ft | 18 kts | 169° |
| 2026-04-21 00:30 | 36.91708 | -111.44623 | 4298 ft | 7 kts | 186° |
| 2026-04-21 00:30 | 36.91679 | -111.44649 | 4301 ft | 2 kts | 239° |
| 2026-04-21 00:31 | 36.91679 | -111.44648 | 4301 ft | 0 kts | 239° |
| 2026-04-21 00:31 | 36.91697 | -111.44713 | 4303 ft | 9 kts | 333° |
| 2026-04-21 00:31 | 36.91769 | -111.44736 | 4302 ft | 11 kts | 350° |
| 2026-04-21 00:31 | 36.91857 | -111.44753 | 4299 ft | 14 kts | 351° |
| 2026-04-21 00:32 | 36.91967 | -111.44775 | 4295 ft | 17 kts | 349° |
| 2026-04-21 00:32 | 36.92099 | -111.44804 | 4289 ft | 21 kts | 349° |
| 2026-04-21 00:32 | 36.92255 | -111.44837 | 4282 ft | 24 kts | 349° |
| 2026-04-21 00:32 | 36.92422 | -111.44876 | 4273 ft | 18 kts | 351° |
| 2026-04-21 00:33 | 36.92497 | -111.44892 | 4269 ft | 8 kts | 348° |
| 2026-04-21 00:33 | 36.92564 | -111.44905 | 4267 ft | 11 kts | 352° |
| 2026-04-21 00:33 | 36.92652 | -111.44923 | 4264 ft | 14 kts | 339° |
| 2026-04-21 00:33 | 36.92702 | -111.44986 | 4263 ft | 5 kts | 277° |
| 2026-04-21 00:34 | 36.92703 | -111.45007 | 4263 ft | 0 kts | 271° |
| 2026-04-21 00:34 | 36.92703 | -111.45008 | 4263 ft | 0 kts | 270° |
| 2026-04-21 00:34 | 36.92702 | -111.45029 | 4263 ft | 3 kts | 262° |
| 2026-04-21 00:34 | 36.92686 | -111.45066 | 4263 ft | 5 kts | 214° |
| 2026-04-21 00:35 | 36.92677 | -111.45071 | 4263 ft | 3 kts | 194° |
| 2026-04-21 00:35 | 36.92653 | -111.45067 | 4264 ft | 0 kts | 166° |